Time;durP1;ratioP1;P1;durP2;ratioP2;P2;SDS_P1;SDS_P2;PMS_P1;PMS_P2;Temp;Humidity;BMP_temperature;BMP_pressure;BME280_temperature;BME280_humidity;BME280_pressure;Samples;Min_cycle;Max_cycle;Signal;HPM_P1;HPM_P2
2022/04/20 00:00:17;;;;;;;0.13;0.13;;;;;;;13.55;55.93;101750.25;5089622;28;20024;-86
2022/04/20 00:02:44;;;;;;;0.05;0.05;;;;;;;13.54;56.45;101751.16;5088911;28;20024;-86
2022/04/20 00:05:10;;;;;;;0.20;0.20;;;;;;;13.53;57.04;101745.84;5095778;28;20123;-86
2022/04/20 00:07:39;;;;;;;0.10;0.10;;;;;;;13.51;55.97;101756.53;5095563;28;20030;-86
2022/04/20 00:10:12;;;;;;;0.80;0.50;;;;;;;13.51;55.03;101753.00;5093500;28;20032;-86
2022/04/20 00:12:38;;;;;;;0.00;0.00;;;;;;;13.44;56.51;101752.22;5097626;28;20028;-85
2022/04/20 00:15:10;;;;;;;0.10;0.10;;;;;;;13.44;55.52;101746.91;5104687;28;20041;-86
2022/04/20 00:17:39;;;;;;;0.00;0.00;;;;;;;13.41;55.59;101744.31;5090190;28;20050;-86
2022/04/20 00:20:06;;;;;;;0.80;0.80;;;;;;;13.36;56.63;101756.78;5094923;28;20028;-86
2022/04/20 00:22:33;;;;;;;0.05;0.05;;;;;;;13.33;55.54;101751.50;5098406;28;20040;-86
2022/04/20 00:25:01;;;;;;;0.10;0.10;;;;;;;13.29;57.02;101755.13;5098928;28;20031;-86
2022/04/20 00:27:31;;;;;;;0.10;0.10;;;;;;;13.25;56.59;101749.84;5088127;28;20088;-86
2022/04/20 00:30:00;;;;;;;0.20;0.20;;;;;;;13.21;56.20;101756.13;5100737;28;20047;-86
2022/04/20 00:32:39;;;;;;;;;;;;;;;;;;;;;
2022/04/20 00:35:39;;;;;;;0.10;0.10;;;;;;;13.19;57.14;101754.41;5083726;28;20131;-86
2022/04/20 00:38:11;;;;;;;0.00;0.00;;;;;;;13.12;57.68;101764.25;5096914;28;20466;-86
2022/04/20 00:40:47;;;;;;;0.10;0.10;;;;;;;13.08;57.71;101762.53;5096433;28;20156;-86
2022/04/20 00:43:28;;;;;;;0.10;0.10;;;;;;;13.08;57.98;101765.19;5111825;28;20024;-86
2022/04/20 00:46:03;;;;;;;0.10;0.10;;;;;;;13.09;57.60;101764.31;5111793;28;20032;-86
2022/04/20 00:48:42;;;;;;;0.05;0.05;;;;;;;13.04;56.94;101764.38;5107512;28;20111;-87
2022/04/20 00:51:31;;;;;;;0.00;0.00;;;;;;;12.98;58.03;101761.81;5104346;28;20050;-86
2022/04/20 00:54:04;;;;;;;0.60;0.60;;;;;;;13.00;57.84;101764.47;5099150;28;20031;-86
2022/04/20 00:57:00;;;;;;;0.20;0.20;;;;;;;12.99;58.50;101763.56;5105218;28;20082;-85
2022/04/20 00:59:41;;;;;;;0.10;0.10;;;;;;;12.97;57.93;101764.50;5096939;28;20039;-86
2022/04/20 01:02:26;;;;;;;0.10;0.10;;;;;;;12.91;57.98;101766.34;5092232;28;20499;-86
2022/04/20 01:05:13;;;;;;;0.10;0.10;;;;;;;12.83;57.89;101762.03;5097865;28;20035;-86
2022/04/20 01:07:56;;;;;;;0.38;0.38;;;;;;;12.87;57.71;101764.63;5103261;28;20055;-86
2022/04/20 01:10:36;;;;;;;;;;;;;;;12.93;57.40;101758.34;5087500;28;20123;-86
2022/04/20 01:14:20;;;;;;;1.17;1.17;;;;;;;12.86;57.69;101762.88;5091618;28;19919;-86
2022/04/20 01:16:49;;;;;;;0.97;0.73;;;;;;;12.74;57.77;101768.38;4952542;28;20046;-86
2022/04/20 01:19:19;;;;;;;0.10;0.10;;;;;;;12.72;57.32;101772.81;5007913;28;20050;-85
2022/04/20 01:21:46;;;;;;;0.05;0.05;;;;;;;12.68;58.06;101768.47;5009185;28;20033;-86
2022/04/20 01:24:21;;;;;;;0.05;0.05;;;;;;;12.67;57.20;101769.34;5021300;28;20519;-85
2022/04/20 01:26:50;;;;;;;0.10;0.10;;;;;;;12.67;57.33;101766.69;5025061;28;20041;-86
2022/04/20 01:29:18;;;;;;;0.30;0.30;;;;;;;12.64;57.60;101759.66;5022954;28;20041;-85
2022/04/20 01:31:44;;;;;;;0.00;0.00;;;;;;;12.61;57.72;101771.19;5010633;28;20113;-85
2022/04/20 01:34:10;;;;;;;0.10;0.10;;;;;;;12.60;57.74;101757.94;5009336;28;20037;-86
2022/04/20 01:36:41;;;;;;;0.25;0.25;;;;;;;12.60;57.38;101763.25;5013975;28;20068;-85
2022/04/20 01:39:15;;;;;;;0.17;0.17;;;;;;;12.58;58.49;101773.88;5019437;28;20037;-86
2022/04/20 01:41:46;;;;;;;0.10;0.10;;;;;;;12.52;57.93;101763.34;5015452;28;20038;-86
2022/04/20 01:44:12;;;;;;;0.10;0.10;;;;;;;12.45;58.06;101767.88;5005965;28;20034;-86
2022/04/20 01:46:41;;;;;;;0.30;0.30;;;;;;;12.42;58.76;101772.34;5015959;28;20057;-86
2022/04/20 01:49:08;;;;;;;0.90;0.90;;;;;;;12.39;58.40;101767.06;5005252;28;20026;-85
2022/04/20 01:52:05;;;;;;;0.10;0.10;;;;;;;12.36;58.56;101767.09;5012226;28;20034;-85
2022/04/20 01:54:23;;;;;;;0.10;0.10;;;;;;;12.34;58.24;101761.81;5091869;28;20052;-86
2022/04/20 01:56:51;;;;;;;0.30;0.30;;;;;;;12.32;58.55;101768.03;5097630;28;20028;-86
2022/04/20 01:59:18;;;;;;;0.77;0.77;;;;;;;12.30;58.83;101770.72;5101286;28;20024;-86
2022/04/20 02:04:31;;;;;;;0.60;0.60;;;;;;;12.23;58.71;101767.25;5097054;28;20039;-85
2022/04/20 02:06:57;;;;;;;0.10;0.10;;;;;;;12.21;57.78;101769.06;5092700;28;20028;-85
2022/04/20 02:09:24;;;;;;;0.10;0.10;;;;;;;12.15;58.35;101763.81;5095396;28;20147;-85
2022/04/20 02:11:50;;;;;;;0.10;0.10;;;;;;;12.13;59.30;101762.94;5089702;28;20024;-86
2022/04/20 02:14:16;;;;;;;0.20;0.20;;;;;;;12.10;58.71;101765.63;5095457;28;20056;-86
2022/04/20 02:16:42;;;;;;;0.10;0.10;;;;;;;12.10;57.76;101762.97;5095073;28;20082;-85
2022/04/20 02:19:09;;;;;;;0.00;0.00;;;;;;;12.08;58.17;101763.00;5097918;28;20111;-86
2022/04/20 02:21:35;;;;;;;0.40;0.38;;;;;;;12.04;58.49;101763.94;5098626;28;20042;-86
2022/04/20 02:24:01;;;;;;;0.13;0.13;;;;;;;12.03;57.76;101762.16;5097599;28;20031;-86
2022/04/20 02:26:27;;;;;;;0.05;0.05;;;;;;;12.00;57.78;101762.22;5095206;28;20051;-86
2022/04/20 02:28:53;;;;;;;0.10;0.10;;;;;;;11.98;57.80;101766.66;5099746;28;20102;-85
2022/04/20 02:31:22;;;;;;;0.60;0.60;;;;;;;11.97;58.35;101760.47;5094815;28;20556;-86
2022/04/20 02:33:52;;;;;;;0.10;0.10;;;;;;;11.92;59.23;101762.25;5090879;28;20032;-86
2022/04/20 02:39:49;;;;;;;0.00;0.00;;;;;;;11.97;58.47;101757.81;5079590;28;20111;-86
2022/04/20 02:42:52;;;;;;;0.08;0.08;;;;;;;11.92;57.72;101762.25;5072566;28;20404;-85
2022/04/20 02:46:05;;;;;;;;;;;;;;;;;;;;;
2022/04/20 02:49:51;;;;;;;0.10;0.10;;;;;;;11.91;58.46;101749.91;5036571;28;20036;-86
2022/04/20 02:52:47;;;;;;;0.08;0.08;;;;;;;11.79;58.13;101756.19;4990511;28;20042;-85
2022/04/20 02:55:15;;;;;;;0.08;0.08;;;;;;;11.75;58.85;101761.53;4987372;28;20030;-85
2022/04/20 02:58:19;;;;;;;0.30;0.30;;;;;;;11.80;58.03;101759.72;4991238;28;20502;-85
2022/04/20 03:00:59;;;;;;;0.10;0.10;;;;;;;11.68;57.55;101773.16;4984951;28;20042;-85
2022/04/20 03:03:58;;;;;;;0.45;0.45;;;;;;;11.67;58.50;101766.94;5032356;28;20040;-85
2022/04/20 03:06:44;;;;;;;0.10;0.10;;;;;;;11.58;59.39;101773.22;5064911;28;20056;-86
2022/04/20 03:09:26;;;;;;;0.10;0.10;;;;;;;11.62;59.13;101771.41;5071280;28;21430;-86
2022/04/20 03:12:33;;;;;;;0.10;0.10;;;;;;;11.55;59.78;101777.66;5082801;28;20085;-85
2022/04/20 03:16:07;;;;;;;;;;;;;;;;;;;;;
2022/04/20 03:19:44;;;;;;;0.10;0.10;;;;;;;11.65;58.80;101774.94;5066377;28;20086;-86
2022/04/20 03:23:13;;;;;;;;;;;;;;;;;;;;;
2022/04/20 03:25:45;;;;;;;0.45;0.45;;;;;;;11.61;57.63;101777.63;4970040;28;20046;-86
2022/04/20 03:28:40;;;;;;;0.10;0.10;;;;;;;11.55;58.19;101780.31;5017498;28;20038;-86
2022/04/20 03:31:32;;;;;;;0.10;0.10;;;;;;;11.45;58.41;101790.13;5024456;28;20512;-86
2022/04/20 03:34:39;;;;;;;0.10;0.10;;;;;;;11.49;58.85;101783.94;5011765;28;20045;-85
2022/04/20 03:37:43;;;;;;;0.10;0.10;;;;;;;11.42;58.98;101782.22;5025847;28;20042;-86
2022/04/20 03:40:22;;;;;;;0.15;0.15;;;;;;;11.41;58.39;101785.75;5002349;28;20534;-85
2022/04/20 03:42:57;;;;;;;0.08;0.08;;;;;;;11.35;58.51;101791.13;5024810;28;20105;-86
2022/04/20 03:45:28;;;;;;;0.10;0.10;;;;;;;11.33;58.95;101789.34;5015841;28;20064;-86
2022/04/20 03:47:59;;;;;;;0.00;0.00;;;;;;;11.33;58.80;101792.00;5020134;28;20588;-85
2022/04/20 03:50:28;;;;;;;0.10;0.10;;;;;;;11.30;59.54;101789.38;5019935;28;20467;-87
2022/04/20 03:52:57;;;;;;;0.10;0.10;;;;;;;11.30;59.16;101792.03;5029310;28;20037;-86
2022/04/20 03:55:26;;;;;;;0.10;0.10;;;;;;;11.31;59.50;101791.16;5026554;28;20110;-86
2022/04/20 03:57:55;;;;;;;0.10;0.10;;;;;;;11.26;59.46;101795.59;5029127;28;20516;-86
2022/04/20 04:00:25;;;;;;;0.20;0.20;;;;;;;11.26;59.13;101792.94;5028763;28;20040;-85
2022/04/20 04:02:52;;;;;;;0.10;0.10;;;;;;;11.22;59.24;101796.50;5046000;22;20041;-80
2022/04/20 04:05:18;;;;;;;0.10;0.10;;;;;;;11.18;58.81;101794.78;5064277;28;20122;-80
2022/04/20 04:07:44;;;;;;;0.10;0.10;;;;;;;11.15;58.36;101800.09;5066603;28;20074;-80
2022/04/20 04:10:10;;;;;;;0.38;0.38;;;;;;;11.11;58.69;101793.06;5055904;28;20112;-80
2022/04/20 04:12:36;;;;;;;0.10;0.10;;;;;;;11.09;58.90;101800.13;5051927;28;20034;-81
2022/04/20 04:15:03;;;;;;;0.77;0.77;;;;;;;11.04;59.47;101804.59;5052887;28;20032;-80
2022/04/20 04:17:29;;;;;;;0.10;0.10;;;;;;;11.04;59.25;101807.25;5049115;28;20036;-80
2022/04/20 04:19:55;;;;;;;0.00;0.00;;;;;;;11.05;58.92;101806.34;5050918;28;20029;-79
2022/04/20 04:22:22;;;;;;;8.95;2.75;;;;;;;11.02;59.96;101806.41;5047987;28;20071;-81
2022/04/20 04:24:48;;;;;;;0.10;0.10;;;;;;;10.99;59.05;101805.50;5049142;28;20092;-80
2022/04/20 04:27:15;;;;;;;1.48;1.38;;;;;;;11.00;59.54;101807.28;5057856;28;20104;-81
2022/04/20 04:29:41;;;;;;;0.10;0.10;;;;;;;10.97;59.60;101801.13;5065113;28;20047;-80
2022/04/20 04:32:07;;;;;;;0.10;0.10;;;;;;;10.98;59.39;101809.06;5050133;28;20041;-80
2022/04/20 04:34:34;;;;;;;0.10;0.10;;;;;;;10.94;59.54;101809.97;5061605;28;20029;-81
2022/04/20 04:37:00;;;;;;;0.10;0.10;;;;;;;10.95;59.66;101809.09;5055806;28;20039;-79
2022/04/20 04:39:30;;;;;;;0.50;0.50;;;;;;;10.95;59.32;101816.13;5052430;28;20040;-81
2022/04/20 04:41:56;;;;;;;0.10;0.10;;;;;;;10.92;59.50;101811.75;5052241;28;20048;-81
2022/04/20 04:44:23;;;;;;;0.10;0.10;;;;;;;10.93;59.20;101820.56;5059317;28;20025;-81
2022/04/20 04:49:35;;;;;;;0.10;0.10;;;;;;;10.90;58.66;101821.47;5048382;28;20052;-80
2022/04/20 04:52:03;;;;;;;0.10;0.10;;;;;;;10.88;58.29;101820.63;5048209;28;20833;-79
2022/04/20 04:54:30;;;;;;;0.10;0.10;;;;;;;10.86;58.41;101825.03;5058961;28;20048;-81
2022/04/20 04:56:56;;;;;;;0.10;0.10;;;;;;;10.83;58.74;101825.94;5054190;28;20028;-81
2022/04/20 04:59:22;;;;;;;0.10;0.10;;;;;;;10.83;58.97;101830.38;5049111;28;20747;-80
2022/04/20 05:01:48;;;;;;;0.00;0.00;;;;;;;10.83;58.48;101831.22;5043285;28;20121;-78
2022/04/20 05:04:14;;;;;;;0.40;0.40;;;;;;;10.83;58.98;101838.31;5045535;28;20025;-81
2022/04/20 05:06:41;;;;;;;0.10;0.10;;;;;;;10.83;58.24;101835.66;5042313;28;20074;-81
2022/04/20 05:09:07;;;;;;;0.10;0.10;;;;;;;10.84;58.53;101837.41;5050561;28;20021;-79
2022/04/20 05:11:34;;;;;;;0.10;0.10;;;;;;;10.83;58.85;101835.66;5042017;28;20053;-79
2022/04/20 05:14:00;;;;;;;0.10;0.10;;;;;;;10.83;58.70;101838.31;5047274;28;20025;-81
2022/04/20 05:16:26;;;;;;;0.38;0.38;;;;;;;10.83;58.46;101852.44;5046679;28;20089;-81
2022/04/20 05:18:52;;;;;;;0.00;0.00;;;;;;;10.83;58.81;101841.84;5046997;28;20132;-80
2022/04/20 05:21:19;;;;;;;0.10;0.10;;;;;;;10.85;58.75;101841.81;5051690;28;20110;-80
2022/04/20 05:23:45;;;;;;;0.10;0.10;;;;;;;10.86;58.73;101850.69;5051096;28;20043;-81
2022/04/20 05:26:11;;;;;;;0.03;0.03;;;;;;;10.88;58.01;101848.88;5042762;28;20116;-80
2022/04/20 05:28:37;;;;;;;0.08;0.08;;;;;;;10.90;58.21;101857.72;5051130;28;20404;-81
2022/04/20 05:31:03;;;;;;;0.10;0.10;;;;;;;10.92;58.40;101848.00;5053407;28;20184;-81
2022/04/20 05:33:29;;;;;;;0.10;0.10;;;;;;;10.95;58.50;101850.63;5044589;28;20459;-81
2022/04/20 05:35:55;;;;;;;0.10;0.10;;;;;;;10.97;58.36;101849.72;5050450;28;20511;-81
2022/04/20 05:43:54;;;;;;;0.10;0.10;;;;;;;11.06;57.65;101851.44;5053093;28;20016;-80
2022/04/20 05:46:20;;;;;;;0.08;0.08;;;;;;;11.09;58.29;101854.09;5051574;28;20060;-80
2022/04/20 05:48:46;;;;;;;0.10;0.10;;;;;;;11.13;57.74;101854.94;5056678;28;20033;-79
2022/04/20 05:51:13;;;;;;;0.10;0.10;;;;;;;11.14;58.25;101846.97;5053575;28;20470;-79
2022/04/20 05:53:39;;;;;;;0.20;0.20;;;;;;;11.19;58.16;101854.91;5052128;28;20330;-79
2022/04/20 05:56:05;;;;;;;2.90;0.95;;;;;;;11.25;57.52;101854.88;5055020;28;20033;-79
2022/04/20 05:58:31;;;;;;;0.10;0.10;;;;;;;11.26;57.13;101856.59;5056243;28;20032;-81
2022/04/20 06:00:57;;;;;;;0.00;0.00;;;;;;;11.29;57.89;101858.34;5048512;28;20025;-81
2022/04/20 06:03:23;;;;;;;1.77;0.65;;;;;;;11.34;57.47;101861.88;5047379;28;20044;-79
2022/04/20 06:05:50;;;;;;;0.10;0.10;;;;;;;11.37;58.29;101858.34;5047053;28;20041;-81
2022/04/20 06:08:16;;;;;;;0.00;0.00;;;;;;;11.41;57.42;101866.22;5050041;28;20040;-80
2022/04/20 06:10:44;;;;;;;0.10;0.10;;;;;;;11.42;57.36;101861.81;5057918;28;20075;-79
2022/04/20 06:13:10;;;;;;;0.10;0.10;;;;;;;11.46;57.86;101858.25;5059755;28;20032;-80
2022/04/20 06:15:36;;;;;;;0.10;0.10;;;;;;;11.47;57.56;101855.56;5058884;28;20063;-80
2022/04/20 06:18:02;;;;;;;0.08;0.08;;;;;;;11.52;56.43;101863.50;5056298;28;20064;-80
2022/04/20 06:20:28;;;;;;;0.10;0.10;;;;;;;11.57;56.75;101860.81;5058851;28;20033;-82
2022/04/20 06:22:55;;;;;;;0.00;0.00;;;;;;;11.62;56.39;101867.84;5058503;28;20033;-82
2022/04/20 06:25:21;;;;;;;0.10;0.10;;;;;;;11.68;56.30;101866.06;5058949;28;20029;-79
2022/04/20 06:27:47;;;;;;;0.10;0.10;;;;;;;11.72;55.88;101865.13;5055882;28;20118;-79
2022/04/20 06:30:13;;;;;;;0.10;0.10;;;;;;;11.78;55.96;101862.44;5054740;28;20032;-80
2022/04/20 06:32:39;;;;;;;0.10;0.10;;;;;;;11.86;55.79;101862.34;5051459;28;20436;-80
2022/04/20 06:35:06;;;;;;;0.10;0.10;;;;;;;11.92;55.67;101865.81;5061881;28;20210;-79
2022/04/20 06:37:32;;;;;;;0.00;0.00;;;;;;;11.96;55.67;101864.94;5062464;28;20447;-80
2022/04/20 06:39:58;;;;;;;0.55;0.55;;;;;;;12.04;55.65;101853.38;5078965;28;20024;-81
2022/04/20 06:42:26;;;;;;;0.10;0.10;;;;;;;12.12;55.11;101856.81;5078580;28;20040;-80
2022/04/20 06:44:52;;;;;;;0.20;0.20;;;;;;;12.17;55.61;101860.31;5079663;28;20039;-80
2022/04/20 06:47:18;;;;;;;0.10;0.10;;;;;;;12.23;55.43;101857.59;5080302;28;20036;-80
2022/04/20 06:49:44;;;;;;;0.10;0.10;;;;;;;12.34;54.79;101859.28;5079715;28;20029;-80
2022/04/20 07:00:28;;;;;;;0.00;0.00;;;;;;;12.66;54.97;101866.88;5057853;28;20099;-82
2022/04/20 07:03:03;;;;;;;0.63;0.63;;;;;;;12.77;54.55;101859.63;5056786;28;20044;-81
2022/04/20 07:05:29;;;;;;;0.00;0.00;;;;;;;12.78;53.98;101863.16;5067179;28;20027;-80
2022/04/20 07:07:55;;;;;;;0.73;0.20;;;;;;;12.87;53.96;101865.72;5057011;28;20079;-80
2022/04/20 07:10:21;;;;;;;0.10;0.10;;;;;;;12.94;53.53;101862.03;5058002;28;20017;-80
2022/04/20 07:12:47;;;;;;;0.10;0.10;;;;;;;12.99;52.05;101863.78;5057590;28;20043;-81
2022/04/20 07:15:13;;;;;;;0.10;0.10;;;;;;;13.09;52.75;101871.59;5057536;28;20029;-79
2022/04/20 07:17:39;;;;;;;0.08;0.08;;;;;;;13.17;52.07;101866.19;5057375;28;20048;-80
2022/04/20 07:20:06;;;;;;;0.00;0.00;;;;;;;13.24;52.02;101869.63;5057448;28;20516;-79
2022/04/20 07:22:33;;;;;;;2.90;1.55;;;;;;;13.32;52.07;101872.16;5052049;28;20116;-79
2022/04/20 07:25:00;;;;;;;0.00;0.00;;;;;;;13.39;52.06;101873.88;5056953;28;20098;-80
2022/04/20 07:27:26;;;;;;;0.00;0.00;;;;;;;13.46;51.50;101871.97;5057521;28;20515;-80
2022/04/20 07:29:52;;;;;;;0.00;0.00;;;;;;;13.54;51.34;101868.28;5057025;28;20032;-78
2022/04/20 07:32:18;;;;;;;0.10;0.10;;;;;;;13.63;51.83;101869.06;5053455;28;20036;-80
2022/04/20 07:34:44;;;;;;;0.10;0.10;;;;;;;13.70;51.09;101863.59;5067601;28;20123;-79
2022/04/20 07:37:10;;;;;;;0.08;0.08;;;;;;;13.79;50.64;101867.91;5068311;28;20354;-78
2022/04/20 07:39:36;;;;;;;0.00;0.00;;;;;;;13.83;49.32;101869.63;5069575;28;20039;-81
2022/04/20 07:42:03;;;;;;;0.10;0.10;;;;;;;13.94;50.71;101879.22;5073455;28;20037;-80
2022/04/20 07:44:29;;;;;;;0.00;0.00;;;;;;;14.00;50.48;101877.31;5072352;28;20045;-80
2022/04/20 07:46:55;;;;;;;0.10;0.10;;;;;;;14.10;49.15;101888.69;5069203;28;20032;-80
2022/04/20 07:52:07;;;;;;;1.30;0.52;;;;;;;14.27;49.55;101869.72;5070449;28;20060;-80
2022/04/20 07:54:33;;;;;;;0.00;0.00;;;;;;;14.37;49.45;101865.97;5076613;28;20032;-80
2022/04/20 07:56:59;;;;;;;0.05;0.05;;;;;;;14.44;48.88;101866.69;5076438;28;20040;-79
2022/04/20 07:59:25;;;;;;;0.10;0.10;;;;;;;14.52;48.70;101870.09;5076749;28;20040;-81
2022/04/20 08:01:51;;;;;;;0.00;0.00;;;;;;;14.61;49.12;101870.84;5058007;28;20073;-81
2022/04/20 08:04:17;;;;;;;0.20;0.20;;;;;;;14.72;49.33;101879.53;5056138;28;20041;-81
2022/04/20 08:06:43;;;;;;;0.00;0.00;;;;;;;14.77;48.80;101874.97;5055357;28;20024;-79
2022/04/20 08:09:09;;;;;;;0.00;0.00;;;;;;;14.88;48.37;101875.63;5055875;28;20028;-80
2022/04/20 08:11:35;;;;;;;0.13;0.13;;;;;;;14.99;47.62;101879.84;5052700;28;20040;-82
2022/04/20 08:14:16;;;;;;;0.00;0.00;;;;;;;15.05;46.93;101874.38;5052563;28;20035;-79
2022/04/20 08:16:44;;;;;;;0.10;0.10;;;;;;;15.13;48.14;101872.41;5056359;28;20048;-81
2022/04/20 08:19:12;;;;;;;0.10;0.10;;;;;;;15.28;47.92;101875.66;5055527;28;20114;-82
2022/04/20 08:21:38;;;;;;;0.10;0.10;;;;;;;15.33;47.54;101879.09;5052506;28;20440;-79
2022/04/20 08:24:05;;;;;;;0.00;0.00;;;;;;;15.43;47.33;101882.44;5051067;28;20036;-78
2022/04/20 08:26:31;;;;;;;0.00;0.00;;;;;;;15.52;47.46;101887.53;5054151;28;20488;-81
2022/04/20 08:28:57;;;;;;;0.20;0.20;;;;;;;15.62;46.54;101874.84;5064374;28;20123;-81
2022/04/20 08:31:24;;;;;;;0.10;0.10;;;;;;;15.69;46.31;101877.31;5054629;28;20041;-81
2022/04/20 08:33:50;;;;;;;0.10;0.10;;;;;;;15.80;45.68;101874.38;5055021;28;20059;-82
2022/04/20 08:36:17;;;;;;;0.10;0.10;;;;;;;15.87;45.35;101867.09;5054178;28;20458;-81
2022/04/20 08:38:44;;;;;;;0.00;0.00;;;;;;;15.97;45.88;101878.44;5053037;28;20036;-82
2022/04/20 08:41:14;;;;;;;0.00;0.00;;;;;;;16.07;44.49;101881.75;5053344;28;20043;-83
2022/04/20 08:43:41;;;;;;;0.00;0.00;;;;;;;16.17;44.74;101880.59;5055704;28;20037;-83
2022/04/20 08:46:10;;;;;;;0.00;0.00;;;;;;;16.33;45.02;101881.06;5055745;28;20025;-85
2022/04/20 08:48:36;;;;;;;0.00;0.00;;;;;;;16.43;44.36;101876.31;5056879;28;20031;-82
2022/04/20 08:51:06;;;;;;;0.10;0.10;;;;;;;16.56;45.17;101874.16;5064846;28;20166;-84
2022/04/20 08:53:32;;;;;;;0.00;0.00;;;;;;;16.70;44.08;101874.66;5056811;28;20032;-86
2022/04/20 08:58:48;;;;;;;0.10;0.10;;;;;;;16.89;43.85;101866.94;5054657;28;20045;-84
2022/04/20 09:01:16;;;;;;;0.15;0.15;;;;;;;17.02;43.15;101869.28;5053325;28;20039;-82
2022/04/20 09:03:46;;;;;;;0.00;0.00;;;;;;;17.14;40.40;101869.78;5066112;28;20098;-82
2022/04/20 09:06:13;;;;;;;0.00;0.00;;;;;;;17.25;41.93;101868.59;5066822;28;20024;-84
2022/04/20 09:08:39;;;;;;;0.00;0.00;;;;;;;17.38;42.78;101864.56;5073537;28;20383;-86
2022/04/20 09:11:05;;;;;;;0.00;0.00;;;;;;;17.42;41.57;101855.53;5074593;28;20470;-85
2022/04/20 09:13:35;;;;;;;0.05;0.05;;;;;;;17.57;42.35;101853.25;5075385;28;20445;-86
2022/04/20 09:16:10;;;;;;;0.00;0.00;;;;;;;17.68;40.92;101853.75;5070974;28;20450;-84
2022/04/20 09:18:38;;;;;;;0.00;0.00;;;;;;;17.72;40.33;101852.75;5068687;28;20036;-84
2022/04/20 09:21:08;;;;;;;0.10;0.10;;;;;;;17.87;40.65;101858.50;5061871;28;20124;-84
2022/04/20 09:23:34;;;;;;;0.00;0.00;;;;;;;17.93;41.05;101866.31;5076693;28;20024;-83
2022/04/20 09:26:10;;;;;;;0.00;0.00;;;;;;;18.06;40.46;101851.59;5079137;28;20087;-83
2022/04/20 09:28:37;;;;;;;0.20;0.20;;;;;;;18.11;40.41;101849.63;5080768;28;20028;-83
2022/04/20 09:31:04;;;;;;;0.08;0.08;;;;;;;18.15;37.80;101855.75;5067759;28;20178;-83
2022/04/20 09:33:53;;;;;;;0.00;0.00;;;;;;;18.32;39.29;101849.81;5068121;28;20029;-83
2022/04/20 09:36:41;;;;;;;0.28;0.28;;;;;;;18.41;39.60;101846.75;5079967;28;20039;-83
2022/04/20 09:39:07;;;;;;;0.10;0.10;;;;;;;18.40;39.50;101842.31;5079472;28;20040;-84
2022/04/20 09:41:33;;;;;;;0.00;0.00;;;;;;;18.49;39.78;101842.94;5078596;28;20385;-83
2022/04/20 09:44:09;;;;;;;0.08;0.08;;;;;;;18.64;38.49;101838.78;5075331;28;20099;-83
2022/04/20 09:49:50;;;;;;;2.40;0.65;;;;;;;18.81;38.58;101838.16;5070192;28;20024;-84
2022/04/20 09:52:16;;;;;;;0.22;0.22;;;;;;;18.85;37.22;101835.25;5078392;28;20032;-84
2022/04/20 09:54:53;;;;;;;0.00;0.00;;;;;;;19.01;37.61;101834.72;5078906;28;20028;-83
2022/04/20 09:57:21;;;;;;;0.00;0.00;;;;;;;19.00;36.58;101832.97;5069733;28;20064;-83
2022/04/20 10:00:10;;;;;;;0.00;0.00;;;;;;;19.17;37.39;101830.47;5063914;28;20043;-82
2022/04/20 10:02:46;;;;;;;0.10;0.10;;;;;;;19.17;37.76;101837.66;5056935;28;20021;-84
2022/04/20 10:05:12;;;;;;;0.10;0.10;;;;;;;19.26;37.57;101821.16;5060951;28;20086;-84
2022/04/20 10:07:38;;;;;;;0.52;0.52;;;;;;;19.34;34.29;101826.22;5058578;28;20033;-84
2022/04/20 10:10:05;;;;;;;0.15;0.15;;;;;;;19.37;35.33;101821.59;5057805;28;20092;-83
2022/04/20 10:12:32;;;;;;;0.00;0.00;;;;;;;19.45;36.53;101818.59;5065734;28;20039;-83
2022/04/20 10:17:51;;;;;;;0.00;0.00;;;;;;;19.60;35.38;101822.47;5077911;28;20090;-83
2022/04/20 10:20:20;;;;;;;0.00;0.00;;;;;;;19.64;34.91;101817.78;5077499;28;20052;-84
2022/04/20 10:22:47;;;;;;;0.77;0.77;;;;;;;19.71;35.58;101814.81;5077041;28;20032;-83
2022/04/20 10:25:13;;;;;;;0.00;0.00;;;;;;;19.75;34.99;101818.25;5077499;28;20046;-83
2022/04/20 10:30:26;;;;;;;0.00;0.00;;;;;;;19.92;34.40;101806.75;5127510;27;20144;-80
2022/04/20 10:33:09;;;;;;;0.05;0.05;;;;;;;20.08;35.12;101812.34;5110509;28;20036;-78
2022/04/20 10:35:55;;;;;;;;;;;;;;;20.24;33.59;101804.44;5111906;28;20032;-78
2022/04/20 10:38:22;;;;;;;0.00;0.00;;;;;;;20.14;33.78;101801.28;5111463;28;19912;-78
2022/04/20 10:41:02;;;;;;;0.00;0.00;;;;;;;20.18;33.49;101796.66;5107058;28;20103;-78
2022/04/20 10:43:30;;;;;;;0.00;0.00;;;;;;;20.13;33.49;101794.16;5110368;28;20665;-78
2022/04/20 10:59:40;;;;;;;0.20;0.20;;;;;;;20.53;33.37;101780.69;5077443;28;20212;-78
2022/04/20 11:02:08;;;;;;;2.67;0.38;;;;;;;20.63;32.16;101781.13;5069246;28;20024;-79
2022/04/20 11:09:55;;;;;;;0.10;0.10;;;;;;;20.73;33.25;101768.13;5118025;27;20427;-78
2022/04/20 11:26:40;;;;;;;0.00;0.00;;;;;;;21.36;32.39;101746.16;5122275;27;20598;-79
2022/04/20 11:29:15;;;;;;;0.00;0.00;;;;;;;21.43;31.89;101744.00;5076490;28;20036;-79
2022/04/20 11:34:20;;;;;;;0.10;0.10;;;;;;;21.60;32.92;101729.69;5155476;27;91714;-79
2022/04/20 11:36:49;;;;;;;0.10;0.10;;;;;;;21.73;32.57;101724.50;5133073;27;20027;-78
2022/04/20 11:39:16;;;;;;;0.10;0.10;;;;;;;21.74;31.53;101731.66;5138251;27;20058;-78
2022/04/20 11:41:46;;;;;;;1.10;0.32;;;;;;;21.75;31.42;101728.00;5140669;27;20046;-78
2022/04/20 11:44:36;;;;;;;0.10;0.10;;;;;;;21.81;30.96;101722.28;5121432;28;20084;-78
2022/04/20 11:47:04;;;;;;;0.00;0.00;;;;;;;21.85;31.10;101718.47;5129009;28;20038;-78
2022/04/20 11:52:11;;;;;;;0.00;0.00;;;;;;;22.03;31.33;101721.09;5168255;27;106395;-79
2022/04/20 11:54:38;;;;;;;0.03;0.03;;;;;;;22.18;31.46;101719.41;5151910;27;20031;-78
2022/04/20 11:57:07;;;;;;;1.25;0.82;;;;;;;22.25;29.99;101721.66;5146707;27;20524;-77
2022/04/20 11:59:33;;;;;;;0.03;0.03;;;;;;;22.32;30.88;101713.22;5148147;27;20027;-78
2022/04/20 12:01:59;;;;;;;0.80;0.75;;;;;;;22.37;30.42;101714.75;5130107;27;20031;-77
2022/04/20 12:04:27;;;;;;;0.08;0.08;;;;;;;22.35;30.03;101699.56;5130871;28;20563;-78
2022/04/20 12:09:36;;;;;;;0.00;0.00;;;;;;;22.40;30.48;101698.38;5118557;27;20222;-79
2022/04/20 12:12:05;;;;;;;0.10;0.10;;;;;;;22.45;30.91;101696.31;5087590;28;20020;-82
2022/04/20 12:14:35;;;;;;;0.10;0.10;;;;;;;22.56;30.78;101684.00;5085330;28;20324;-83
2022/04/20 12:17:05;;;;;;;0.00;0.00;;;;;;;22.60;29.60;101677.47;5090812;28;20051;-83
2022/04/20 12:19:32;;;;;;;0.05;0.05;;;;;;;22.60;29.70;101678.34;5090792;28;20017;-83
2022/04/20 12:22:07;;;;;;;0.00;0.00;;;;;;;22.64;30.20;101679.03;5082109;28;20028;-83
2022/04/20 12:24:34;;;;;;;0.10;0.10;;;;;;;22.66;30.23;101676.25;5089787;28;20701;-83
2022/04/20 12:27:00;;;;;;;0.10;0.10;;;;;;;22.64;29.31;101672.75;5091423;28;20028;-83
2022/04/20 12:29:32;;;;;;;0.00;0.00;;;;;;;22.60;28.73;101672.97;5090815;28;20020;-83
2022/04/20 12:31:58;;;;;;;0.08;0.08;;;;;;;22.62;29.22;101673.72;5086950;28;20378;-82
2022/04/20 12:34:28;;;;;;;0.10;0.10;;;;;;;22.61;29.95;101671.13;5093211;28;20028;-84
2022/04/20 12:37:04;;;;;;;0.05;0.05;;;;;;;22.71;28.77;101666.06;5090409;28;20033;-84
2022/04/20 12:39:38;;;;;;;0.10;0.10;;;;;;;22.77;29.77;101663.00;5093199;28;20096;-84
2022/04/20 12:52:29;;;;;;;0.37;0.37;;;;;;;23.22;30.72;101647.72;5133872;27;20446;-83
2022/04/20 12:55:03;;;;;;;0.00;0.00;;;;;;;23.48;29.41;101647.94;5086410;28;20067;-83
2022/04/20 13:03:08;;;;;;;0.05;0.05;;;;;;;23.81;27.57;101633.25;5092741;28;20044;-83
2022/04/20 13:05:37;;;;;;;0.10;0.10;;;;;;;23.86;28.90;101630.28;5092969;28;20089;-83
2022/04/20 13:08:05;;;;;;;10.90;0.85;;;;;;;23.95;30.49;101623.44;5088080;28;20413;-83
2022/04/20 13:10:35;;;;;;;0.00;0.00;;;;;;;24.02;30.17;101628.34;5075365;28;20111;-83
2022/04/20 13:13:02;;;;;;;0.00;0.00;;;;;;;24.13;28.90;101621.38;5088038;28;20032;-83
2022/04/20 13:15:29;;;;;;;0.52;0.52;;;;;;;24.19;29.44;101621.84;5082622;28;20047;-81
2022/04/20 13:17:57;;;;;;;0.10;0.10;;;;;;;24.27;29.34;101621.31;5083060;28;20155;-84
2022/04/20 13:20:25;;;;;;;0.10;0.10;;;;;;;24.29;28.53;101610.38;5087151;28;20032;-85
2022/04/20 13:22:52;;;;;;;0.10;0.10;;;;;;;24.28;29.45;101614.09;5084725;28;20052;-85
2022/04/20 13:28:05;;;;;;;0.10;0.10;;;;;;;24.57;29.36;101608.56;5083339;28;20044;-83